Time;durP1;ratioP1;P1;durP2;ratioP2;P2;SDS_P1;SDS_P2;PMS_P1;PMS_P2;Temp;Humidity;BMP_temperature;BMP_pressure;BME280_temperature;BME280_humidity;BME280_pressure;Samples;Min_cycle;Max_cycle;Signal;HPM_P1;HPM_P2
2022/01/24 00:01:53;;;;;;;424.70;193.07;;;5.70;99.90;;;;;;4973527;28;20054;-87
2022/01/24 00:04:21;;;;;;;427.13;193.88;;;5.70;99.90;;;;;;4966407;28;20035;-87
2022/01/24 00:06:47;;;;;;;430.67;195.50;;;5.70;99.90;;;;;;4980982;28;20042;-87
2022/01/24 00:09:13;;;;;;;429.08;192.95;;;5.70;99.90;;;;;;4956360;28;20043;-87
2022/01/24 00:14:51;;;;;;;426.63;194.32;;;5.70;99.90;;;;;;4965694;28;20485;-87
2022/01/24 00:17:17;;;;;;;430.17;192.73;;;5.70;99.90;;;;;;4968496;28;20094;-88
2022/01/24 00:27:56;;;;;;;431.58;195.15;;;5.60;99.90;;;;;;4969443;28;20062;-87
2022/01/24 00:30:22;;;;;;;431.08;194.95;;;5.70;99.90;;;;;;4968656;28;20133;-87
2022/01/24 00:32:47;;;;;;;441.52;197.93;;;5.60;99.90;;;;;;4970231;28;20141;-88
2022/01/24 00:35:13;;;;;;;437.23;196.05;;;5.60;99.90;;;;;;4975214;28;20072;-87
2022/01/24 00:37:39;;;;;;;438.58;197.07;;;5.60;99.90;;;;;;4974714;28;20444;-87
2022/01/24 00:40:06;;;;;;;436.30;195.68;;;5.60;99.90;;;;;;4970913;28;20038;-87
2022/01/24 00:42:44;;;;;;;430.05;194.38;;;5.60;99.90;;;;;;4971587;28;20457;-88
2022/01/24 00:45:17;;;;;;;439.25;195.88;;;5.60;99.90;;;;;;4961330;28;20179;-86
2022/01/24 00:55:20;;;;;;;437.75;197.70;;;5.50;99.90;;;;;;4967006;28;20426;-87
2022/01/24 00:57:46;;;;;;;438.70;195.85;;;5.50;99.90;;;;;;4964022;28;20077;-87
2022/01/24 01:00:12;;;;;;;434.95;194.63;;;5.50;99.90;;;;;;4962889;28;20043;-88
2022/01/24 01:02:38;;;;;;;435.27;196.63;;;5.50;99.90;;;;;;4970521;28;20035;-88
2022/01/24 01:05:33;;;;;;;435.45;196.05;;;5.50;99.90;;;;;;4970008;28;20117;-88
2022/01/24 01:18:47;;;;;;;433.55;195.73;;;5.50;99.90;;;;;;4960261;28;20051;-87
2022/01/24 01:21:15;;;;;;;437.38;196.60;;;5.40;99.90;;;;;;4972366;28;20069;-87
2022/01/24 01:23:48;;;;;;;432.95;195.90;;;5.40;99.90;;;;;;4972080;28;20057;-88
2022/01/24 01:27:02;;;;;;;434.02;195.38;;;5.40;99.90;;;;;;4956998;28;20435;-88
2022/01/24 01:29:09;;;;;;;432.63;194.80;;;5.40;99.90;;;;;;4959408;28;20407;-88
2022/01/24 01:55:39;;;;;;;433.15;192.60;;;5.30;99.90;;;;;;4968782;28;20334;-87
2022/01/24 01:58:10;;;;;;;432.38;193.30;;;5.30;99.90;;;;;;4983352;28;20053;-87
2022/01/24 02:00:39;;;;;;;436.38;195.85;;;5.30;99.90;;;;;;4965463;28;21539;-85
2022/01/24 02:03:05;;;;;;;436.10;194.98;;;5.30;99.90;;;;;;4961178;28;20050;-86
2022/01/24 02:05:31;;;;;;;438.63;196.38;;;5.20;99.90;;;;;;4962001;28;20065;-85
2022/01/24 02:07:56;;;;;;;439.10;196.82;;;5.20;99.90;;;;;;4965787;28;20557;-85
2022/01/24 02:10:24;;;;;;;431.48;192.35;;;5.20;99.90;;;;;;4976541;28;20158;-87
2022/01/24 02:12:52;;;;;;;430.80;195.00;;;5.20;99.90;;;;;;4980165;28;20058;-85
2022/01/24 02:15:26;;;;;;;437.50;196.15;;;5.20;99.90;;;;;;4968724;28;20131;-87
2022/01/24 02:19:07;;;;;;;438.30;195.23;;;5.20;99.90;;;;;;4968714;28;20201;-89
2022/01/24 02:25:59;;;;;;;433.90;194.32;;;5.10;99.90;;;;;;4970207;28;20528;-86
2022/01/24 02:28:29;;;;;;;432.77;194.68;;;5.10;99.90;;;;;;4978680;28;20133;-86
2022/01/24 02:31:07;;;;;;;431.83;193.48;;;5.10;99.90;;;;;;4971582;28;20047;-85
2022/01/24 02:33:33;;;;;;;434.83;193.40;;;5.10;99.90;;;;;;4966529;28;20062;-85
2022/01/24 02:35:59;;;;;;;435.73;194.15;;;5.10;99.90;;;;;;4970858;28;20153;-86
2022/01/24 02:49:12;;;;;;;436.48;193.98;;;5.00;99.90;;;;;;4968601;28;20483;-87
2022/01/24 02:54:03;;;;;;;436.90;192.32;;;5.00;99.90;;;;;;4986723;28;20058;-85
2022/01/24 02:56:29;;;;;;;439.08;193.73;;;5.00;99.90;;;;;;4972690;28;20161;-87
2022/01/24 02:58:54;;;;;;;439.52;193.10;;;5.00;99.90;;;;;;4960878;28;20086;-87
2022/01/24 03:01:20;;;;;;;438.58;193.57;;;4.90;99.90;;;;;;4980498;28;20717;-87
2022/01/24 03:03:46;;;;;;;436.70;194.68;;;4.90;99.90;;;;;;4973849;28;20039;-86
2022/01/24 03:06:11;;;;;;;439.27;192.63;;;4.90;99.90;;;;;;4967448;28;20058;-88
2022/01/24 03:08:39;;;;;;;440.10;194.07;;;4.90;99.90;;;;;;4970772;28;20130;-88
2022/01/24 03:11:05;;;;;;;434.27;190.88;;;4.90;99.90;;;;;;4979068;28;20050;-87
2022/01/24 03:13:33;;;;;;;436.83;192.80;;;4.90;99.90;;;;;;4984730;28;20383;-88
2022/01/24 03:16:01;;;;;;;437.95;192.15;;;4.90;99.90;;;;;;4970377;28;20051;-88
2022/01/24 03:18:27;;;;;;;432.00;192.55;;;4.90;99.90;;;;;;4963777;28;20065;-87
2022/01/24 03:20:52;;;;;;;429.42;192.95;;;4.90;99.90;;;;;;4984247;28;20497;-87
2022/01/24 03:23:20;;;;;;;434.27;192.60;;;4.80;99.90;;;;;;4969948;28;20129;-86
2022/01/24 03:25:47;;;;;;;433.15;192.48;;;4.80;99.90;;;;;;4967136;28;20113;-88
2022/01/24 03:28:12;;;;;;;436.05;194.13;;;4.80;99.90;;;;;;4964729;28;20348;-89
2022/01/24 03:30:39;;;;;;;435.98;193.30;;;4.80;99.90;;;;;;4968680;28;20049;-87
2022/01/24 03:33:06;;;;;;;433.80;191.77;;;4.80;99.90;;;;;;4980017;28;20050;-88
2022/01/24 03:35:32;;;;;;;433.30;191.65;;;4.80;99.90;;;;;;4970277;28;20051;-89
2022/01/24 03:37:58;;;;;;;432.65;190.80;;;4.80;99.90;;;;;;4969555;28;20778;-88
2022/01/24 03:40:24;;;;;;;426.90;190.30;;;4.80;99.90;;;;;;4991029;28;20038;-88
2022/01/24 03:42:50;;;;;;;431.95;193.45;;;4.80;99.90;;;;;;4974930;28;20186;-89
2022/01/24 03:45:23;;;;;;;433.77;195.48;;;4.80;99.90;;;;;;4976391;28;20074;-88
2022/01/24 03:48:00;;;;;;;431.42;194.13;;;4.80;99.90;;;;;;4983796;28;20043;-87
2022/01/24 05:47:45;;;;;;;427.90;193.68;;;4.80;99.90;;;;;;670823;23;20347;-86
2022/01/24 05:50:11;;;;;;;421.15;190.68;;;4.80;99.90;;;;;;4952156;28;20067;-88
2022/01/24 05:52:37;;;;;;;431.15;193.45;;;4.80;99.90;;;;;;4953377;28;20054;-88
2022/01/24 05:55:04;;;;;;;424.27;191.57;;;4.80;99.90;;;;;;4956393;28;20137;-88
2022/01/24 05:57:30;;;;;;;420.48;190.73;;;4.80;99.90;;;;;;4952364;29;20162;-90
2022/01/24 05:59:55;;;;;;;420.65;190.10;;;4.80;99.90;;;;;;4949787;28;20086;-88
2022/01/24 06:02:21;;;;;;;419.20;190.27;;;4.80;99.90;;;;;;4972614;28;20131;-90
2022/01/24 06:04:47;;;;;;;425.98;191.90;;;4.80;99.90;;;;;;4936900;28;20047;-90
2022/01/24 06:07:15;;;;;;;426.35;193.88;;;4.80;99.90;;;;;;4960685;28;20641;-90
2022/01/24 06:09:44;;;;;;;420.15;192.35;;;4.80;99.90;;;;;;4956326;29;20376;-89
2022/01/24 06:12:10;;;;;;;422.17;190.93;;;4.80;99.90;;;;;;4946252;28;20062;-89
2022/01/24 06:14:36;;;;;;;426.60;194.25;;;4.80;99.90;;;;;;4976993;28;20434;-90
2022/01/24 06:17:02;;;;;;;424.25;192.25;;;4.80;99.90;;;;;;4969400;28;20047;-88
2022/01/24 06:19:28;;;;;;;422.92;190.75;;;4.80;99.90;;;;;;4936656;29;20054;-90
2022/01/24 06:21:54;;;;;;;424.92;192.85;;;4.80;99.90;;;;;;4961106;28;20055;-90
2022/01/24 06:24:19;;;;;;;429.20;192.48;;;4.80;99.90;;;;;;4977536;28;20034;-89
2022/01/24 06:29:20;;;;;;;429.27;193.73;;;4.80;99.90;;;;;;5278128;23;20573;-88
2022/01/24 06:36:49;;;;;;;428.58;193.57;;;4.90;99.90;;;;;;4945130;28;20079;-90
2022/01/24 06:39:15;;;;;;;428.35;192.93;;;4.90;99.90;;;;;;4956887;28;20051;-91
2022/01/24 06:41:42;;;;;;;429.75;193.57;;;4.90;99.90;;;;;;4956431;29;20344;-90
2022/01/24 06:44:11;;;;;;;431.33;193.85;;;4.90;99.90;;;;;;4971128;28;20042;-90
2022/01/24 06:46:36;;;;;;;427.95;194.52;;;4.90;99.90;;;;;;4957533;28;20415;-90
2022/01/24 06:49:02;;;;;;;429.20;193.80;;;4.90;99.90;;;;;;4941875;28;20217;-89
2022/01/24 06:51:28;;;;;;;425.33;191.27;;;4.90;99.90;;;;;;4949566;29;20395;-90
2022/01/24 06:53:53;;;;;;;433.75;195.25;;;4.90;99.90;;;;;;4949655;28;20539;-89
2022/01/24 06:56:19;;;;;;;435.20;194.35;;;4.90;99.90;;;;;;4957388;28;20062;-90
2022/01/24 06:58:45;;;;;;;433.20;194.65;;;4.90;99.90;;;;;;4944654;28;20040;-90
2022/01/24 07:01:11;;;;;;;431.83;194.27;;;4.90;99.90;;;;;;4962301;28;20043;-91
2022/01/24 07:03:36;;;;;;;431.48;193.90;;;4.90;99.90;;;;;;4952766;29;20098;-89
2022/01/24 07:06:05;;;;;;;423.13;191.60;;;5.40;99.90;;;;;;4958427;28;20131;-91
2022/01/24 07:08:31;;;;;;;427.60;193.13;;;4.90;99.90;;;;;;4964331;28;20077;-92
2022/01/24 07:10:59;;;;;;;426.05;191.82;;;5.00;99.90;;;;;;4953127;28;20074;-92
2022/01/24 07:13:24;;;;;;;425.73;192.38;;;4.90;99.90;;;;;;4961015;28;20039;-94
2022/01/24 07:15:57;;;;;;;429.80;193.95;;;5.00;99.90;;;;;;4961009;28;20046;-90
2022/01/24 07:20:48;;;;;;;429.00;193.75;;;5.00;99.90;;;;;;4961516;28;20055;-94
2022/01/24 07:23:13;;;;;;;428.45;193.52;;;5.00;99.90;;;;;;4984163;28;20059;-95
2022/01/24 07:28:15;;;;;;;425.48;193.90;;;4.90;99.90;;;;;;5047110;22;20055;-94
2022/01/24 07:30:42;;;;;;;429.52;195.00;;;5.00;99.90;;;;;;4967551;28;20031;-93
2022/01/24 07:33:07;;;;;;;429.33;195.82;;;5.00;99.90;;;;;;4995785;28;20105;-94
2022/01/24 07:35:33;;;;;;;425.60;194.48;;;5.00;99.90;;;;;;4983124;28;20031;-94
2022/01/24 14:09:25;;;;;;;423.38;192.60;;;5.30;99.90;;;;;;4069172;23;20327;-94
2022/01/24 14:11:52;;;;;;;420.30;190.43;;;5.30;99.90;;;;;;4930650;29;20056;-96
2022/01/24 14:20:46;;;;;;;429.90;202.55;;;5.30;99.90;;;;;;4933790;23;20116;-95
2022/01/24 14:23:51;;;;;;;412.42;188.27;;;6.20;99.90;;;;;;4923933;29;20380;-95
2022/01/24 14:26:19;;;;;;;412.23;188.15;;;5.20;99.90;;;;;;4845438;29;20078;-96
2022/01/24 14:28:48;;;;;;;420.10;194.30;;;6.30;99.90;;;;;;4871738;23;20084;-96
2022/01/24 14:31:38;;;;;;;439.73;224.65;;;5.80;99.90;;;;;;5024713;23;20054;-94
2022/01/24 14:34:10;;;;;;;415.08;191.15;;;5.10;99.90;;;;;;4935938;29;20136;-93
2022/01/24 14:36:40;;;;;;;416.30;190.82;;;4.40;99.90;;;;;;4934975;29;20051;-94
2022/01/24 14:39:22;;;;;;;406.02;186.65;;;5.10;99.90;;;;;;4934288;29;20122;-94
2022/01/24 14:41:49;;;;;;;414.48;191.85;;;5.10;99.90;;;;;;4912709;29;20044;-96
2022/01/24 15:00:52;;;;;;;421.25;200.40;;;5.10;99.90;;;;;;5965721;23;20078;-96
2022/01/24 15:03:18;;;;;;;410.88;189.82;;;4.90;99.90;;;;;;4937268;29;20047;-96
2022/01/24 15:05:45;;;;;;;411.42;190.77;;;5.20;99.90;;;;;;4938402;29;20357;-92
2022/01/24 15:08:11;;;;;;;376.13;177.57;;;5.50;99.90;;;;;;4934831;29;20051;-91
2022/01/24 15:10:40;;;;;;;374.60;176.52;;;5.10;99.90;;;;;;4937440;29;20063;-96
2022/01/24 15:13:18;;;;;;;377.40;178.10;;;5.10;99.90;;;;;;4931267;29;20400;-96
2022/01/24 15:16:17;;;;;;;375.73;177.40;;;4.80;99.90;;;;;;4928762;29;20043;-96
2022/01/24 15:27:21;;;;;;;366.40;173.05;;;4.90;99.90;;;;;;4941866;29;20551;-95
2022/01/24 15:29:54;;;;;;;376.13;179.07;;;5.10;99.90;;;;;;5007149;23;20063;-90
2022/01/24 15:32:20;;;;;;;372.33;176.88;;;5.80;99.90;;;;;;4935190;29;20059;-95
2022/01/24 15:34:51;;;;;;;365.35;173.23;;;5.10;99.90;;;;;;4915207;29;20512;-94
2022/01/24 15:37:45;;;;;;;370.92;175.25;;;5.40;99.90;;;;;;4923610;29;20035;-95
2022/01/24 15:40:51;;;;;;;367.33;173.63;;;6.90;99.90;;;;;;4940263;29;20060;-96
2022/01/24 15:47:44;;;;;;;393.90;196.57;;;5.10;99.90;;;;;;4841237;23;20086;-96
2022/01/24 15:50:13;;;;;;;362.50;171.25;;;5.10;99.90;;;;;;4898436;29;20056;-96
2022/01/24 15:52:52;;;;;;;;;;;;;;;;;;;;;
2022/01/24 15:55:38;;;;;;;369.30;174.85;;;6.10;99.90;;;;;;4891688;29;20068;-95
2022/01/24 15:58:08;;;;;;;372.38;176.23;;;5.10;99.90;;;;;;4888620;29;20044;-96
2022/01/24 16:00:42;;;;;;;402.98;203.02;;;5.10;99.90;;;;;;5080161;23;20023;-95
2022/01/24 16:05:52;;;;;;;368.23;174.27;;;5.10;99.90;;;;;;4929874;29;20040;-96
2022/01/24 16:08:39;;;;;;;366.38;171.68;;;5.20;99.90;;;;;;4918699;29;20020;-96
2022/01/24 16:11:28;;;;;;;365.60;172.35;;;5.10;99.90;;;;;;4909008;29;20048;-96
2022/01/24 16:13:54;;;;;;;369.75;175.15;;;6.00;99.90;;;;;;4923762;29;20043;-96
2022/01/24 16:16:20;;;;;;;363.83;171.25;;;5.00;99.90;;;;;;4911705;29;20044;-96
2022/01/24 16:18:51;;;;;;;364.30;171.95;;;4.30;99.90;;;;;;4912320;29;20120;-96
2022/01/24 16:21:27;;;;;;;369.75;175.15;;;5.30;99.90;;;;;;4921698;29;20656;-95
2022/01/24 16:27:33;;;;;;;367.88;174.32;;;6.90;99.90;;;;;;4924295;29;20059;-96
2022/01/24 16:32:35;;;;;;;363.52;172.75;;;5.10;99.90;;;;;;5062811;23;20058;-95
2022/01/24 16:35:04;;;;;;;358.80;169.57;;;5.20;99.90;;;;;;4961495;29;20072;-94
2022/01/24 16:37:35;;;;;;;357.85;169.35;;;5.10;99.90;;;;;;4958188;29;20036;-92
2022/01/24 16:40:09;;;;;;;364.13;172.93;;;5.20;99.90;;;;;;4942605;29;20123;-93
2022/01/24 16:43:14;;;;;;;361.27;171.38;;;5.10;99.90;;;;;;4935006;29;20055;-93
2022/01/24 16:48:42;;;;;;;361.77;174.32;;;5.70;99.90;;;;;;4912575;29;20062;-82
2022/01/24 16:51:13;;;;;;;363.00;171.77;;;5.10;99.90;;;;;;4910598;29;20491;-83
2022/01/24 16:53:41;;;;;;;363.13;172.18;;;5.10;99.90;;;;;;4911134;29;20040;-81
2022/01/24 16:56:08;;;;;;;363.33;171.80;;;5.10;99.90;;;;;;4927086;29;20146;-83
2022/01/24 16:58:34;;;;;;;361.30;171.50;;;5.10;99.90;;;;;;4915399;29;20062;-82
2022/01/24 17:01:04;;;;;;;361.48;171.88;;;5.10;99.90;;;;;;4911412;29;20044;-82
2022/01/24 17:03:30;;;;;;;363.35;172.40;;;5.10;99.90;;;;;;4915988;29;20097;-81
2022/01/24 17:05:57;;;;;;;367.13;174.93;;;5.10;99.90;;;;;;4913971;29;20122;-82
2022/01/24 17:08:22;;;;;;;362.17;172.27;;;5.00;99.90;;;;;;4911781;29;20058;-81
2022/01/24 17:10:49;;;;;;;362.73;172.48;;;5.60;99.90;;;;;;4905402;29;20360;-83
2022/01/24 17:13:23;;;;;;;363.13;171.77;;;5.00;99.90;;;;;;4916045;29;20377;-81
2022/01/24 17:15:54;;;;;;;361.52;170.40;;;4.90;99.90;;;;;;4913445;29;20046;-81
2022/01/24 17:18:24;;;;;;;365.63;173.60;;;5.00;99.90;;;;;;4915247;29;20504;-81
2022/01/24 17:20:51;;;;;;;368.45;175.63;;;5.10;99.90;;;;;;4914831;29;20079;-81
2022/01/24 17:23:17;;;;;;;364.92;172.63;;;5.00;99.90;;;;;;4910965;29;20075;-82
2022/01/24 17:25:43;;;;;;;361.10;171.85;;;5.00;99.90;;;;;;4915743;29;20077;-82
2022/01/24 17:28:16;;;;;;;360.60;170.38;;;5.00;99.90;;;;;;4914362;29;20523;-83
2022/01/24 17:30:46;;;;;;;362.55;171.80;;;5.00;99.90;;;;;;4914580;29;20074;-82
2022/01/24 17:33:16;;;;;;;362.38;171.90;;;5.00;99.90;;;;;;4943136;29;20055;-82
2022/01/24 17:35:42;;;;;;;363.98;173.00;;;5.10;99.90;;;;;;4932302;29;20050;-83
2022/01/24 17:38:09;;;;;;;357.88;168.68;;;5.10;99.90;;;;;;4930099;29;20048;-84
2022/01/24 17:40:35;;;;;;;361.48;171.23;;;5.00;99.90;;;;;;4931618;29;20094;-84
2022/01/24 17:43:01;;;;;;;363.25;172.25;;;5.00;99.90;;;;;;4928929;29;20040;-83
2022/01/24 17:45:28;;;;;;;365.20;173.02;;;5.00;99.90;;;;;;4932835;29;20044;-84
2022/01/24 17:47:54;;;;;;;368.80;175.10;;;5.00;99.90;;;;;;4928342;29;20082;-84
2022/01/24 17:50:20;;;;;;;366.58;173.95;;;5.10;99.90;;;;;;4930512;29;20083;-82
2022/01/24 17:52:47;;;;;;;364.80;173.13;;;5.10;99.90;;;;;;4920870;29;20047;-84
2022/01/24 17:55:15;;;;;;;364.05;172.45;;;5.10;99.90;;;;;;4930750;29;20060;-84
2022/01/24 17:57:41;;;;;;;366.83;175.13;;;5.50;99.90;;;;;;4929960;29;20711;-84
2022/01/24 18:00:10;;;;;;;364.80;172.82;;;5.00;99.90;;;;;;4932883;29;20032;-83
2022/01/24 18:02:36;;;;;;;365.25;172.77;;;5.00;99.90;;;;;;4931142;29;20139;-85
2022/01/24 18:05:02;;;;;;;366.30;173.63;;;5.00;99.90;;;;;;4928522;29;20274;-83
2022/01/24 18:07:30;;;;;;;366.20;173.10;;;5.00;99.90;;;;;;4941551;29;20051;-84
2022/01/24 18:09:56;;;;;;;366.45;173.52;;;5.20;99.90;;;;;;4930831;29;20047;-84
2022/01/24 18:12:22;;;;;;;369.27;175.32;;;5.00;99.90;;;;;;4925844;29;20028;-84
2022/01/24 18:14:47;;;;;;;368.30;175.27;;;5.00;99.90;;;;;;4912451;29;20101;-85
2022/01/24 18:17:13;;;;;;;367.55;173.45;;;5.00;99.90;;;;;;4922613;29;20043;-84
2022/01/24 18:19:41;;;;;;;369.00;174.77;;;5.40;99.90;;;;;;4930489;29;20066;-83
2022/01/24 18:22:07;;;;;;;368.08;174.20;;;5.00;99.90;;;;;;4931421;29;20089;-82
2022/01/24 18:24:33;;;;;;;369.90;175.38;;;5.00;99.90;;;;;;4930752;29;20055;-83
2022/01/24 18:26:59;;;;;;;370.98;176.00;;;4.90;99.90;;;;;;4929669;29;20493;-83
2022/01/24 18:29:25;;;;;;;373.45;176.77;;;5.60;99.90;;;;;;4929894;29;20039;-83
2022/01/24 18:31:51;;;;;;;367.30;173.02;;;4.90;99.90;;;;;;4930583;29;20048;-82
2022/01/24 18:34:16;;;;;;;366.58;173.77;;;4.90;99.90;;;;;;4937064;29;20053;-84
2022/01/24 18:36:42;;;;;;;372.83;176.95;;;4.90;99.90;;;;;;4931654;29;20046;-85
2022/01/24 18:39:09;;;;;;;368.75;173.80;;;4.90;99.90;;;;;;4930871;29;20079;-83
2022/01/24 18:41:35;;;;;;;367.05;173.15;;;4.90;99.90;;;;;;4928599;29;20536;-82
2022/01/24 18:44:01;;;;;;;370.13;175.25;;;4.80;99.90;;;;;;4931856;29;20040;-83
2022/01/24 18:46:27;;;;;;;366.88;173.57;;;4.80;99.90;;;;;;4929622;29;20039;-83
2022/01/24 18:48:53;;;;;;;368.08;174.80;;;4.80;99.90;;;;;;4929576;29;20595;-83
2022/01/24 18:51:19;;;;;;;368.23;174.38;;;4.80;99.90;;;;;;4929407;29;20058;-82
2022/01/24 18:53:44;;;;;;;362.70;172.45;;;4.80;99.90;;;;;;4928869;29;20055;-84
2022/01/24 18:56:10;;;;;;;359.60;169.10;;;4.80;99.90;;;;;;4928834;29;20062;-85
2022/01/24 18:58:36;;;;;;;362.20;171.38;;;4.80;99.90;;;;;;4927197;29;20115;-84
2022/01/24 19:01:01;;;;;;;368.58;174.75;;;4.80;99.90;;;;;;4928613;29;20043;-84
2022/01/24 19:03:28;;;;;;;371.30;176.07;;;4.80;99.90;;;;;;4925109;29;20142;-85
2022/01/24 19:05:54;;;;;;;369.80;174.60;;;5.50;99.90;;;;;;4925149;29;20078;-84
2022/01/24 19:08:20;;;;;;;370.63;176.02;;;4.80;99.90;;;;;;4929003;29;20075;-85
2022/01/24 19:10:46;;;;;;;362.90;171.43;;;4.80;99.90;;;;;;4928697;29;20115;-85
2022/01/24 19:13:16;;;;;;;362.00;171.05;;;4.80;99.90;;;;;;4932587;29;20077;-85
2022/01/24 19:15:45;;;;;;;361.77;171.73;;;5.10;99.90;;;;;;4936689;29;20199;-85
2022/01/24 19:18:23;;;;;;;368.90;173.93;;;4.80;99.90;;;;;;4927960;29;20043;-82
2022/01/24 19:23:35;;;;;;;364.40;173.35;;;4.70;99.90;;;;;;4924391;29;20075;-86
2022/01/24 19:26:10;;;;;;;368.80;174.68;;;4.70;99.90;;;;;;4929430;29;20047;-85
2022/01/24 19:28:42;;;;;;;370.90;177.25;;;4.70;99.90;;;;;;4929205;29;20598;-83
2022/01/24 19:31:10;;;;;;;373.73;177.48;;;4.80;99.90;;;;;;4934297;29;20152;-85
2022/01/24 19:33:36;;;;;;;370.83;176.27;;;4.70;99.90;;;;;;4906881;29;20106;-83
2022/01/24 19:36:14;;;;;;;374.02;177.82;;;4.70;99.90;;;;;;4912334;29;20039;-84
2022/01/24 19:38:40;;;;;;;371.83;176.30;;;4.70;99.90;;;;;;4912043;29;20055;-84
2022/01/24 19:41:11;;;;;;;372.58;176.32;;;4.70;99.90;;;;;;4926145;29;20716;-83
2022/01/24 19:43:37;;;;;;;371.05;176.68;;;4.70;99.90;;;;;;4915531;29;20051;-83
2022/01/24 19:46:03;;;;;;;374.52;178.10;;;4.70;99.90;;;;;;4920646;29;20502;-83
2022/01/24 19:48:33;;;;;;;373.35;177.55;;;4.70;99.90;;;;;;4924418;29;20043;-83
2022/01/24 19:51:04;;;;;;;367.65;175.23;;;4.90;99.90;;;;;;4912411;29;20056;-82
2022/01/24 19:53:50;;;;;;;372.67;176.82;;;4.70;99.90;;;;;;4913043;29;20044;-83
2022/01/24 19:56:26;;;;;;;371.83;176.98;;;4.60;99.90;;;;;;4913395;29;20043;-83
2022/01/24 19:59:16;;;;;;;369.52;176.13;;;4.70;99.90;;;;;;4926843;29;20420;-83
2022/01/24 20:01:42;;;;;;;369.25;176.55;;;4.20;99.90;;;;;;4911937;29;20191;-84
2022/01/24 20:04:08;;;;;;;364.08;172.57;;;4.70;99.90;;;;;;4911808;29;20138;-84
2022/01/24 20:06:50;;;;;;;367.85;174.95;;;4.70;99.90;;;;;;4912741;29;20111;-85
2022/01/24 20:09:17;;;;;;;369.77;176.23;;;4.60;99.90;;;;;;4913126;29;20098;-84
2022/01/24 20:11:42;;;;;;;371.90;177.88;;;5.00;99.90;;;;;;4913210;29;20047;-84
2022/01/24 20:14:10;;;;;;;370.73;176.10;;;4.70;99.90;;;;;;4912041;29;20100;-84
2022/01/24 20:16:35;;;;;;;371.38;176.07;;;6.50;99.90;;;;;;4913213;29;20154;-84
2022/01/24 20:19:02;;;;;;;373.50;177.45;;;6.40;99.90;;;;;;4911601;29;20142;-84
2022/01/24 20:21:27;;;;;;;364.85;173.13;;;6.30;99.90;;;;;;4913033;29;20052;-83
2022/01/24 20:23:59;;;;;;;369.30;175.35;;;6.40;99.90;;;;;;4911294;29;20507;-84
2022/01/24 20:26:31;;;;;;;374.55;178.60;;;3.90;99.90;;;;;;4896799;29;20051;-85
2022/01/24 20:29:00;;;;;;;377.50;179.02;;;6.00;99.90;;;;;;4911723;29;20437;-84
2022/01/24 20:31:33;;;;;;;368.50;174.85;;;4.70;99.90;;;;;;4913296;29;20087;-83
2022/01/24 20:34:16;;;;;;;365.75;173.30;;;3.90;99.90;;;;;;4941596;29;20086;-82
2022/01/24 20:36:44;;;;;;;371.95;176.80;;;4.60;99.90;;;;;;4931663;29;20544;-83
2022/01/24 20:39:10;;;;;;;372.50;178.65;;;4.60;99.90;;;;;;4935836;29;20363;-84
2022/01/24 20:41:45;;;;;;;367.23;173.88;;;4.70;99.90;;;;;;4932326;29;20122;-81
2022/01/24 20:44:14;;;;;;;368.92;173.70;;;4.70;99.90;;;;;;4923958;29;20047;-83
2022/01/24 20:46:41;;;;;;;372.38;176.82;;;4.60;99.90;;;;;;4927967;29;20044;-83
2022/01/24 20:49:09;;;;;;;372.88;177.80;;;4.70;99.90;;;;;;4915672;29;20154;-83
2022/01/24 20:51:54;;;;;;;372.70;178.00;;;4.70;99.90;;;;;;4921816;29;20075;-83
2022/01/24 20:54:24;;;;;;;371.52;176.63;;;4.70;99.90;;;;;;4920051;29;20114;-84
2022/01/24 20:56:50;;;;;;;368.35;175.07;;;4.70;99.90;;;;;;4932680;29;20467;-83
2022/01/24 20:59:15;;;;;;;366.95;174.73;;;4.70;99.90;;;;;;4927133;29;20055;-84
2022/01/24 21:01:54;;;;;;;367.80;174.70;;;6.00;99.90;;;;;;4935650;29;20451;-83
2022/01/24 21:04:20;;;;;;;373.25;177.77;;;4.70;99.90;;;;;;4932181;29;20408;-82
2022/01/24 21:06:46;;;;;;;365.80;173.15;;;4.50;99.90;;;;;;4918666;29;20161;-84
2022/01/24 21:09:15;;;;;;;365.98;172.90;;;4.50;99.90;;;;;;4921935;29;20048;-83
2022/01/24 21:12:46;;;;;;;367.05;172.88;;;4.40;99.90;;;;;;4931896;29;20123;-83
2022/01/24 21:15:03;;;;;;;370.83;175.77;;;4.70;99.90;;;;;;4917207;29;20079;-85
2022/01/24 21:17:30;;;;;;;368.25;175.25;;;5.30;99.90;;;;;;4927619;29;20090;-82
2022/01/24 21:19:56;;;;;;;367.67;175.15;;;4.70;99.90;;;;;;4933464;29;20114;-82
2022/01/24 21:22:22;;;;;;;367.27;174.68;;;4.70;99.90;;;;;;4927197;29;20044;-82
2022/01/24 21:24:48;;;;;;;370.77;176.25;;;6.40;99.90;;;;;;4930866;29;20388;-82
2022/01/24 21:27:14;;;;;;;369.70;175.48;;;4.70;99.90;;;;;;4936375;29;20044;-82
2022/01/24 21:29:44;;;;;;;367.58;174.75;;;4.70;99.90;;;;;;4929346;29;20062;-81
2022/01/24 21:32:11;;;;;;;373.35;177.90;;;4.70;99.90;;;;;;4923072;29;20147;-84
2022/01/24 21:34:59;;;;;;;364.83;173.57;;;4.60;99.90;;;;;;4930735;29;20059;-84
2022/01/24 21:37:25;;;;;;;359.10;170.43;;;4.70;99.90;;;;;;4927895;29;20166;-84
2022/01/24 21:39:51;;;;;;;367.02;174.90;;;4.50;99.90;;;;;;4930676;29;20040;-83
2022/01/24 21:42:20;;;;;;;372.20;177.77;;;5.60;99.90;;;;;;4930535;29;20108;-83
2022/01/24 21:44:46;;;;;;;373.52;177.55;;;5.30;99.90;;;;;;4929357;29;20047;-84
2022/01/24 21:47:14;;;;;;;366.70;173.57;;;4.90;99.90;;;;;;4919477;29;20063;-84
2022/01/24 21:49:41;;;;;;;364.98;173.63;;;4.70;99.90;;;;;;4926272;29;20062;-83
2022/01/24 21:52:06;;;;;;;369.83;175.57;;;4.70;99.90;;;;;;4922483;29;20051;-83
2022/01/24 21:54:32;;;;;;;369.52;175.00;;;4.70;99.90;;;;;;4923519;29;20396;-83
2022/01/24 21:56:58;;;;;;;372.65;177.52;;;4.70;99.90;;;;;;4923897;29;20574;-84
2022/01/24 21:59:25;;;;;;;370.15;175.55;;;4.60;99.90;;;;;;4925009;29;20056;-83
2022/01/24 22:01:51;;;;;;;365.08;172.88;;;4.70;99.90;;;;;;4928590;29;20067;-83
2022/01/24 22:04:18;;;;;;;369.25;174.90;;;4.70;99.90;;;;;;4922454;29;20134;-83
2022/01/24 22:06:45;;;;;;;367.10;173.20;;;4.60;99.90;;;;;;4930012;29;20090;-83
2022/01/24 22:09:11;;;;;;;370.08;174.68;;;4.60;99.90;;;;;;4924130;29;20066;-83
2022/01/24 22:11:37;;;;;;;370.25;175.40;;;5.20;99.90;;;;;;4923999;29;20048;-83
2022/01/24 22:14:09;;;;;;;367.77;174.35;;;4.70;99.90;;;;;;4923625;29;20126;-83
2022/01/24 22:16:36;;;;;;;365.23;173.13;;;4.60;99.90;;;;;;4925260;29;20075;-83
2022/01/24 22:19:03;;;;;;;369.25;176.00;;;4.60;99.90;;;;;;4920448;29;20126;-84
2022/01/24 22:21:32;;;;;;;372.20;176.82;;;4.60;99.90;;;;;;4922373;29;20118;-83
2022/01/24 22:23:58;;;;;;;372.27;176.95;;;4.60;99.90;;;;;;4921253;29;20040;-83
2022/01/24 22:26:27;;;;;;;371.23;175.77;;;4.60;99.90;;;;;;4923685;29;20467;-82
2022/01/24 22:28:58;;;;;;;368.88;175.57;;;4.60;99.90;;;;;;4922473;29;20127;-83
2022/01/24 22:31:27;;;;;;;369.48;175.38;;;4.60;99.90;;;;;;4925669;29;20131;-83
2022/01/24 22:33:56;;;;;;;365.35;172.85;;;5.10;99.90;;;;;;4925960;29;20043;-83
2022/01/24 22:36:24;;;;;;;367.98;174.45;;;4.50;99.90;;;;;;4923463;29;20452;-83
2022/01/24 22:38:53;;;;;;;365.80;174.10;;;4.60;99.90;;;;;;4925465;29;20047;-83
2022/01/24 22:41:31;;;;;;;365.55;174.50;;;4.50;99.90;;;;;;4924748;29;20043;-83
2022/01/24 22:43:59;;;;;;;367.30;174.43;;;4.50;99.90;;;;;;4923271;29;20147;-83
2022/01/24 22:46:27;;;;;;;367.95;174.85;;;5.70;99.90;;;;;;4924278;29;20047;-82
2022/01/24 22:48:57;;;;;;;365.27;173.48;;;5.00;99.90;;;;;;4925933;29;20147;-83
2022/01/24 22:51:24;;;;;;;364.58;172.52;;;4.80;99.90;;;;;;4924319;29;21816;-82
2022/01/24 22:53:51;;;;;;;365.35;173.27;;;4.50;99.90;;;;;;4923629;29;20047;-82
2022/01/24 22:56:18;;;;;;;364.95;173.63;;;4.50;99.90;;;;;;4923872;29;20044;-84
2022/01/24 22:58:46;;;;;;;366.58;174.38;;;4.50;99.90;;;;;;4923200;29;20167;-83
2022/01/24 23:01:16;;;;;;;361.05;172.07;;;4.50;99.90;;;;;;4923530;29;20055;-83
2022/01/24 23:03:42;;;;;;;366.42;174.88;;;5.20;99.90;;;;;;4928973;29;20052;-84
2022/01/24 23:06:08;;;;;;;363.02;172.43;;;4.50;99.90;;;;;;4925066;29;20126;-84
2022/01/24 23:08:34;;;;;;;367.08;175.02;;;5.60;99.90;;;;;;4922926;29;20543;-85
2022/01/24 23:11:08;;;;;;;367.02;174.60;;;4.50;99.90;;;;;;4922525;29;20079;-84
2022/01/24 23:19:10;;;;;;;361.00;170.82;;;4.50;99.90;;;;;;4923601;29;20139;-85